Unicoi, Tennessee
Current Conditions -  °F | °C
As of 1:55 AM on Friday 19 Dec 2014 (Local Time) from K0A9 Reporting Station
Overcast Overcast  
Wind Chill: 34°   Ceiling: 4400
Heat Index: 37°   Visibility: 10mi
Dew Point: 27°   Wind: 5mph
Humidity: 65%   Direction: 250°WSW
Pressure: 30.13"   Gusts: NA
Location:  36.2°N, 82.35°W
Report Text: K0A9 190655Z AUTO 25004KT 10SM OVC044 03/M03 A3013 RMK
Loading
Personal Weather Stations






























Interactive Weather Map New forecast layout! Learn more

10-Day Weather Forecast

Advertisements
Track Severe Weather on mobile